Time;durP1;ratioP1;P1;durP2;ratioP2;P2;SDS_P1;SDS_P2;PMS_P1;PMS_P2;Temp;Humidity;BMP_temperature;BMP_pressure;BME280_temperature;BME280_humidity;BME280_pressure;Samples;Min_cycle;Max_cycle;Signal;HPM_P1;HPM_P2
2021/04/28 00:00:17;;;;;;;15.88;10.48;;;6.80;59.90;;;5.91;42.41;94086.81;5011806;28;20204;-79
2021/04/28 00:02:45;;;;;;;15.00;10.27;;;6.70;60.20;;;5.87;42.55;94084.75;5020226;28;20593;-79
2021/04/28 00:05:14;;;;;;;14.18;10.82;;;6.70;59.90;;;5.83;42.67;94078.31;5033406;28;20665;-79
2021/04/28 00:07:40;;;;;;;15.40;10.48;;;6.70;60.20;;;5.81;42.35;94078.50;5029016;28;20227;-79
2021/04/28 00:10:11;;;;;;;16.30;10.13;;;6.60;60.00;;;5.76;42.78;94073.84;5020136;28;20628;-79
2021/04/28 00:12:38;;;;;;;15.50;10.55;;;6.60;60.20;;;5.73;42.59;94073.41;5036567;28;20227;-79
2021/04/28 00:15:10;;;;;;;17.70;11.45;;;6.60;60.20;;;5.68;42.82;94068.75;4991284;28;20320;-79
2021/04/28 00:17:37;;;;;;;15.15;10.93;;;6.60;60.70;;;5.65;42.74;94063.91;4989123;28;20559;-78
2021/04/28 00:20:10;;;;;;;14.38;10.18;;;6.60;60.30;;;5.62;42.88;94064.28;5012983;28;20713;-79
2021/04/28 00:22:39;;;;;;;17.08;11.10;;;6.50;61.00;;;5.61;42.69;94071.28;5018389;28;20239;-79
2021/04/28 00:25:08;;;;;;;15.43;11.18;;;6.50;60.50;;;5.58;42.99;94070.84;5026880;28;20200;-79
2021/04/28 00:27:36;;;;;;;17.20;11.23;;;6.40;60.60;;;5.56;43.21;94072.81;4994560;28;20229;-79
2021/04/28 00:30:07;;;;;;;17.35;10.82;;;6.40;60.60;;;5.53;43.27;94067.94;5034727;28;20281;-79
2021/04/28 00:32:34;;;;;;;16.75;11.45;;;6.40;60.80;;;5.49;43.11;94070.09;5015087;28;20293;-79
2021/04/28 00:35:04;;;;;;;14.60;10.50;;;6.40;60.70;;;5.46;43.17;94065.28;5034593;28;20314;-79
2021/04/28 00:37:31;;;;;;;15.90;11.57;;;6.40;60.90;;;5.39;43.00;94054.78;5008545;28;20229;-80
2021/04/28 00:39:58;;;;;;;16.35;10.95;;;6.30;60.60;;;5.40;43.04;94058.19;5006755;28;20211;-79
2021/04/28 00:42:25;;;;;;;14.43;10.68;;;6.30;60.70;;;5.35;43.09;94055.34;5016647;28;20231;-78
2021/04/28 00:44:52;;;;;;;15.90;11.23;;;6.30;60.80;;;5.28;43.57;94053.47;5022760;28;20266;-79
2021/04/28 00:47:18;;;;;;;15.02;11.25;;;6.20;61.00;;;5.27;43.59;94044.06;5024959;28;20641;-79
2021/04/28 00:49:45;;;;;;;14.23;10.77;;;6.20;60.90;;;5.27;43.62;94056.22;5018188;28;20228;-79
2021/04/28 00:52:13;;;;;;;14.40;11.07;;;6.10;61.50;;;5.23;43.43;94053.19;5006111;28;20767;-79
2021/04/28 00:54:40;;;;;;;15.52;11.18;;;6.10;60.90;;;5.20;43.62;94063.13;5007586;28;20226;-79
2021/04/28 00:57:08;;;;;;;17.30;11.18;;;6.10;61.00;;;5.15;43.47;94053.28;5031085;28;20665;-79
2021/04/28 00:59:37;;;;;;;14.80;11.20;;;6.00;61.00;;;5.10;43.66;94047.81;4997964;28;20204;-79
2021/04/28 01:02:05;;;;;;;15.95;11.48;;;6.00;61.00;;;5.07;43.53;94048.97;4997903;28;20239;-78
2021/04/28 01:04:36;;;;;;;17.35;11.60;;;6.00;61.00;;;5.05;43.74;94048.34;5025370;28;20235;-80
2021/04/28 01:07:05;;;;;;;17.92;12.00;;;6.00;61.20;;;5.01;43.80;94048.88;4990065;28;20622;-79
2021/04/28 01:09:34;;;;;;;14.85;11.45;;;5.90;61.20;;;5.00;43.77;94045.47;5009636;28;20217;-78
2021/04/28 01:12:04;;;;;;;17.92;11.43;;;5.90;61.50;;;4.96;43.75;94044.22;5001698;28;20237;-79
2021/04/28 01:14:34;;;;;;;15.65;11.85;;;5.90;61.50;;;4.94;43.80;94046.19;4970257;28;20743;-79
2021/04/28 01:17:03;;;;;;;15.90;11.55;;;5.80;61.40;;;4.93;43.95;94039.38;4967664;28;20257;-79
2021/04/28 01:19:37;;;;;;;18.08;12.55;;;5.80;61.50;;;4.91;44.39;94043.97;4974847;28;20227;-79
2021/04/28 01:22:08;;;;;;;16.65;11.93;;;5.80;62.20;;;4.88;44.24;94039.09;5026821;28;20259;-78
2021/04/28 01:24:35;;;;;;;17.35;11.77;;;5.70;61.80;;;4.88;44.07;94041.69;4994104;28;20213;-79
2021/04/28 01:27:15;;;;;;;17.42;11.70;;;5.80;61.70;;;4.83;44.48;94033.63;4989714;28;20322;-79
2021/04/28 01:29:44;;;;;;;20.98;11.82;;;5.70;62.90;;;4.84;44.22;94043.84;4988646;28;20690;-79
2021/04/28 01:32:18;;;;;;;18.17;11.23;;;5.70;61.80;;;4.83;44.37;94052.63;4960815;28;20249;-79
2021/04/28 01:34:47;;;;;;;17.50;11.65;;;5.70;62.30;;;4.80;44.44;94040.78;4968753;28;20244;-79
2021/04/28 01:37:15;;;;;;;17.75;11.73;;;5.70;61.90;;;4.81;44.42;94039.03;4956731;28;20672;-79
2021/04/28 01:39:48;;;;;;;18.90;12.68;;;5.70;61.90;;;4.79;44.63;94044.38;4990880;28;20218;-79
2021/04/28 01:42:17;;;;;;;18.08;12.30;;;5.70;62.20;;;4.78;44.78;94040.16;4987485;28;20248;-79
2021/04/28 01:44:45;;;;;;;17.25;12.20;;;5.60;62.20;;;4.76;44.46;94036.94;5012868;28;20217;-79
2021/04/28 01:47:13;;;;;;;20.00;13.02;;;5.60;62.10;;;4.74;44.68;94041.50;4980232;28;20233;-79
2021/04/28 01:49:42;;;;;;;18.75;11.95;;;5.60;62.10;;;4.73;44.99;94041.69;5009632;28;20294;-78
2021/04/28 01:52:10;;;;;;;18.92;12.60;;;5.60;62.30;;;4.70;44.67;94037.66;4997606;28;20224;-79
2021/04/28 01:54:38;;;;;;;18.17;12.30;;;5.60;62.20;;;4.65;44.71;94027.78;4974139;28;20299;-79
2021/04/28 01:57:08;;;;;;;15.98;11.70;;;5.60;62.20;;;4.64;44.86;94033.97;4979635;28;21072;-79
2021/04/28 01:59:49;;;;;;;17.48;12.80;;;5.50;62.30;;;4.58;44.71;94021.69;4991678;28;20945;-79
2021/04/28 02:02:54;;;;;;;19.38;12.23;;;5.60;62.30;;;4.55;44.81;94034.22;4990891;28;20228;-78
2021/04/28 02:05:25;;;;;;;21.48;13.50;;;5.50;62.10;;;4.52;45.04;94037.97;5005979;28;20677;-79
2021/04/28 02:07:52;;;;;;;17.75;12.32;;;5.40;62.20;;;4.50;44.91;94032.16;5024188;28;20315;-80
2021/04/28 02:10:21;;;;;;;18.45;12.77;;;5.40;62.30;;;4.50;45.45;94034.75;5028455;28;20220;-79
2021/04/28 02:12:49;;;;;;;19.20;12.85;;;5.40;62.60;;;4.49;45.32;94033.13;5036549;28;20224;-79
2021/04/28 02:15:24;;;;;;;19.80;13.18;;;5.40;62.70;;;4.48;45.34;94023.75;5030685;28;20684;-79
2021/04/28 02:17:58;;;;;;;20.60;13.25;;;5.40;62.90;;;4.43;45.84;94021.66;5018424;28;20239;-79
2021/04/28 02:20:25;;;;;;;19.25;13.82;;;5.40;62.80;;;4.40;45.84;94016.03;5036871;28;20207;-78
2021/04/28 02:23:07;;;;;;;17.80;12.63;;;5.30;62.80;;;4.39;45.51;94015.19;5001062;28;20233;-78
2021/04/28 02:25:34;;;;;;;18.77;13.30;;;5.30;62.80;;;4.39;45.62;94023.00;5012975;28;20650;-79
2021/04/28 02:28:07;;;;;;;19.80;13.98;;;5.30;62.80;;;4.37;45.79;94022.38;5005715;28;20294;-79
2021/04/28 02:30:40;;;;;;;19.02;13.60;;;5.30;63.00;;;4.35;45.84;94021.75;5014274;28;20589;-79
2021/04/28 02:33:07;;;;;;;18.83;13.27;;;5.30;63.10;;;4.30;45.87;94018.88;5014467;28;20221;-78
2021/04/28 02:35:34;;;;;;;20.23;14.05;;;5.20;63.10;;;4.34;45.99;94025.31;5045779;28;20728;-79
2021/04/28 02:38:23;;;;;;;23.52;14.10;;;5.20;63.20;;;4.32;46.12;94022.06;5052965;28;20730;-79
2021/04/28 02:40:51;;;;;;;20.88;13.18;;;5.20;63.90;;;4.30;46.19;94022.25;5050757;28;20220;-79
2021/04/28 02:43:19;;;;;;;17.35;13.07;;;5.20;63.20;;;4.28;46.34;94015.63;5006438;28;20227;-79
2021/04/28 02:45:57;;;;;;;20.15;13.10;;;5.20;63.20;;;4.25;45.81;94021.97;5017370;28;20626;-79
2021/04/28 02:48:26;;;;;;;18.27;12.50;;;5.10;63.20;;;4.22;45.79;94017.13;4989733;28;20241;-79
2021/04/28 02:51:16;;;;;;;17.08;12.45;;;5.10;63.10;;;4.19;45.80;94017.50;5027947;28;20212;-79
2021/04/28 02:53:45;;;;;;;18.55;12.98;;;5.10;63.10;;;4.16;46.21;94020.41;4994344;28;20276;-78
2021/04/28 02:56:18;;;;;;;18.35;13.38;;;5.10;63.20;;;4.13;46.12;94021.56;4984033;28;20217;-79
2021/04/28 02:58:45;;;;;;;18.33;12.80;;;5.10;63.10;;;4.12;45.77;94019.16;5009119;28;20228;-79
2021/04/28 03:01:13;;;;;;;19.40;12.80;;;5.00;63.10;;;4.09;45.89;94012.53;4998707;28;20587;-79
2021/04/28 03:03:40;;;;;;;20.33;13.93;;;5.00;63.10;;;4.07;46.29;94006.72;5005980;28;20229;-79
2021/04/28 03:06:17;;;;;;;18.45;13.32;;;5.00;63.30;;;4.04;46.29;94014.84;4995470;28;20268;-79
2021/04/28 03:08:58;;;;;;;18.98;12.57;;;5.00;63.20;;;4.03;46.05;94013.22;4988295;28;20237;-79
2021/04/28 03:11:26;;;;;;;22.30;13.85;;;4.90;63.40;;;3.99;46.41;94005.00;4971102;28;20547;-78
2021/04/28 03:14:00;;;;;;;19.48;13.90;;;4.90;63.40;;;3.99;46.10;94011.94;4948457;28;20216;-79
2021/04/28 03:16:28;;;;;;;20.85;13.82;;;4.90;63.50;;;3.97;45.90;94006.16;4929121;28;20247;-79
2021/04/28 03:18:55;;;;;;;20.92;13.82;;;4.90;63.60;;;3.97;46.28;94012.13;4956227;28;20202;-79
2021/04/28 03:21:25;;;;;;;18.25;13.55;;;4.80;63.60;;;3.96;46.56;94020.09;4960759;28;20202;-78
2021/04/28 03:23:52;;;;;;;21.33;13.80;;;4.80;63.80;;;3.95;46.46;94029.66;4992334;28;20259;-79
2021/04/28 03:26:19;;;;;;;20.98;13.80;;;4.80;63.60;;;3.93;46.62;94021.25;4978707;28;20305;-78
2021/04/28 03:28:50;;;;;;;21.85;13.95;;;4.80;63.70;;;3.93;46.58;94021.25;4933191;28;20268;-78
2021/04/28 03:31:17;;;;;;;21.40;14.70;;;4.80;63.90;;;3.90;46.74;94020.78;4933646;28;20231;-78
2021/04/28 03:33:47;;;;;;;19.98;14.30;;;4.80;63.90;;;3.90;47.09;94013.81;5003209;28;20263;-78
2021/04/28 03:36:16;;;;;;;23.27;13.57;;;4.80;63.90;;;3.92;46.87;94024.00;5003911;28;20223;-78
2021/04/28 03:38:51;;;;;;;21.15;15.00;;;4.70;63.90;;;3.93;47.06;94025.63;5000215;28;20235;-78
2021/04/28 03:41:23;;;;;;;25.08;15.02;;;4.80;64.00;;;3.92;47.01;94019.63;5006373;28;20281;-78
2021/04/28 03:43:51;;;;;;;21.73;14.45;;;4.80;64.20;;;3.93;46.90;94031.63;5002380;28;20352;-80
2021/04/28 03:46:18;;;;;;;22.20;14.55;;;4.80;64.20;;;3.94;46.98;94032.41;4994785;28;20195;-79
2021/04/28 03:48:49;;;;;;;20.77;14.60;;;4.70;64.30;;;3.94;46.97;94028.06;4979395;28;20241;-78
2021/04/28 03:51:16;;;;;;;23.88;16.08;;;4.80;64.40;;;3.93;47.21;94023.03;4965312;28;20253;-78
2021/04/28 03:54:03;;;;;;;25.13;16.27;;;4.80;64.40;;;3.97;47.08;94032.88;5005186;28;20777;-79
2021/04/28 03:56:31;;;;;;;27.80;17.40;;;4.80;64.50;;;3.98;47.64;94020.75;5021402;28;20221;-79
2021/04/28 03:58:58;;;;;;;25.92;15.98;;;4.80;65.50;;;4.01;47.53;94025.56;4971030;28;20225;-79
2021/04/28 04:01:25;;;;;;;23.80;14.88;;;4.80;64.60;;;4.06;47.71;94036.22;4968720;28;20213;-78
2021/04/28 04:03:53;;;;;;;22.83;15.80;;;4.80;64.80;;;4.07;47.71;94034.44;4995595;28;20324;-79
2021/04/28 04:06:35;;;;;;;23.48;15.57;;;4.80;64.80;;;4.10;47.58;94036.69;5010312;28;20213;-78
2021/04/28 04:09:13;;;;;;;23.02;15.32;;;4.90;64.90;;;4.14;47.60;94037.97;5007407;28;20216;-80
2021/04/28 04:11:43;;;;;;;21.90;15.02;;;4.90;64.90;;;4.19;47.59;94040.03;5021058;28;20690;-79
2021/04/28 04:14:13;;;;;;;23.45;15.40;;;4.90;64.90;;;4.23;48.07;94049.09;5028239;28;20399;-79
2021/04/28 04:16:42;;;;;;;24.23;16.25;;;5.10;65.10;;;4.25;47.98;94041.94;5013147;28;20355;-79
2021/04/28 04:19:10;;;;;;;23.15;15.38;;;4.90;65.00;;;4.30;47.77;94050.00;5015621;28;20200;-80
2021/04/28 04:21:45;;;;;;;24.65;15.98;;;5.00;65.20;;;4.34;47.99;94053.88;5017730;28;20208;-79
2021/04/28 04:24:33;;;;;;;25.70;15.60;;;5.00;65.10;;;4.39;47.58;94053.34;4989493;28;20228;-78
2021/04/28 04:27:07;;;;;;;23.70;15.80;;;5.10;65.10;;;4.42;48.17;94050.38;4986740;28;20241;-79
2021/04/28 04:29:52;;;;;;;21.98;15.90;;;5.10;65.20;;;4.43;48.05;94052.84;5004242;28;20225;-79
2021/04/28 04:32:42;;;;;;;23.67;15.95;;;5.10;65.10;;;4.52;48.02;94055.34;5004066;28;20308;-79
2021/04/28 04:35:26;;;;;;;25.02;16.40;;;5.20;65.20;;;4.54;48.23;94046.41;5027419;28;20228;-79
2021/04/28 04:38:17;;;;;;;65.60;40.60;;;5.20;65.30;;;4.61;48.08;94043.91;5006114;28;20244;-80
2021/04/28 04:41:09;;;;;;;71.43;55.97;;;5.20;65.30;;;4.69;48.36;94046.44;5009706;28;20209;-80
2021/04/28 04:43:42;;;;;;;46.20;36.33;;;5.30;65.50;;;4.76;48.36;94054.31;4989125;28;20267;-78
2021/04/28 04:46:19;;;;;;;33.53;25.33;;;5.40;65.60;;;4.84;48.39;94062.03;4990939;28;20210;-79
2021/04/28 04:48:45;;;;;;;31.45;22.77;;;5.40;65.70;;;4.91;48.27;94055.16;4989111;28;20225;-79
2021/04/28 04:51:12;;;;;;;27.95;19.33;;;5.50;65.80;;;4.96;48.32;94058.00;5006033;28;20213;-80
2021/04/28 04:53:39;;;;;;;28.27;20.27;;;5.50;65.90;;;5.06;48.07;94056.94;5015023;28;20228;-80
2021/04/28 04:56:06;;;;;;;25.83;18.88;;;5.60;66.00;;;5.13;48.60;94060.44;5044512;28;20220;-78
2021/04/28 04:58:34;;;;;;;27.27;19.02;;;5.60;65.90;;;5.20;48.68;94055.31;4972952;28;20240;-78
2021/04/28 05:01:02;;;;;;;26.70;18.77;;;5.70;66.00;;;5.26;48.45;94052.84;5002789;28;20240;-79
2021/04/28 05:03:29;;;;;;;25.20;17.85;;;5.80;66.10;;;5.30;48.55;94055.88;5020006;28;20255;-79
2021/04/28 05:05:56;;;;;;;24.30;16.35;;;5.80;66.10;;;5.36;48.65;94049.97;5011406;28;20225;-78
2021/04/28 05:08:22;;;;;;;23.05;17.20;;;5.90;66.30;;;5.44;48.47;94052.47;5006272;28;20703;-79
2021/04/28 05:10:49;;;;;;;112.03;96.65;;;5.90;66.20;;;5.52;48.73;94048.16;5008241;28;20200;-79
2021/04/28 05:13:16;;;;;;;53.65;46.80;;;6.00;66.20;;;5.62;49.02;94056.47;5035324;28;20615;-79
2021/04/28 05:15:43;;;;;;;36.90;30.75;;;6.10;66.40;;;5.68;48.92;94058.34;5037508;28;20239;-79
2021/04/28 05:18:10;;;;;;;30.50;23.25;;;6.20;66.50;;;5.76;49.26;94052.22;5071765;28;20226;-79
2021/04/28 05:20:37;;;;;;;26.88;20.88;;;6.20;66.50;;;5.83;49.32;94050.47;5036156;28;20202;-77
2021/04/28 05:23:04;;;;;;;26.63;19.42;;;6.30;66.60;;;5.93;49.12;94056.22;5013462;28;20232;-79
2021/04/28 05:25:36;;;;;;;23.83;18.42;;;6.30;66.50;;;6.01;48.69;94052.72;5022865;28;20216;-79
2021/04/28 05:28:04;;;;;;;27.63;18.33;;;6.40;66.60;;;6.10;49.14;94040.38;5050461;28;20274;-80
2021/04/28 05:30:31;;;;;;;24.98;17.30;;;6.50;66.80;;;6.17;49.51;94043.06;5024021;28;20768;-80
2021/04/28 05:32:58;;;;;;;28.35;19.08;;;6.60;66.80;;;6.28;49.36;94044.38;5033321;28;20220;-78
2021/04/28 05:35:25;;;;;;;25.65;18.38;;;6.60;66.80;;;6.36;48.80;94039.00;5038554;28;20224;-79
2021/04/28 05:37:52;;;;;;;29.25;19.65;;;6.70;66.90;;;6.43;49.60;94028.66;5028073;28;20227;-79
2021/04/28 05:40:19;;;;;;;28.08;18.90;;;6.80;67.00;;;6.59;49.40;94041.41;5029689;28;20440;-78
2021/04/28 05:42:47;;;;;;;26.98;17.58;;;6.90;67.10;;;6.68;49.63;94042.09;5047885;28;20223;-78
2021/04/28 05:45:14;;;;;;;21.70;16.02;;;7.00;67.10;;;6.78;49.09;94042.56;5051657;28;20270;-78
2021/04/28 05:47:42;;;;;;;24.73;17.35;;;7.10;67.10;;;6.89;49.99;94046.44;5050172;28;20223;-78
2021/04/28 05:50:13;;;;;;;22.92;16.38;;;7.30;67.50;;;7.01;49.50;94044.91;5049642;28;20443;-78
2021/04/28 05:52:39;;;;;;;33.55;21.48;;;7.30;67.60;;;7.14;49.77;94056.41;5047811;28;20292;-79
2021/04/28 05:55:10;;;;;;;25.42;19.02;;;7.40;67.40;;;7.25;50.52;94050.69;5027859;28;20235;-78
2021/04/28 05:57:38;;;;;;;25.63;18.38;;;7.50;67.80;;;7.36;50.24;94044.91;5044176;28;20591;-79
2021/04/28 06:00:12;;;;;;;23.88;17.25;;;7.60;67.80;;;7.53;50.34;94055.00;5029914;28;20196;-78
2021/04/28 06:02:42;;;;;;;24.33;18.05;;;7.70;68.20;;;7.64;50.93;94057.09;5028034;28;20263;-79
2021/04/28 06:05:11;;;;;;;22.10;16.38;;;7.80;67.90;;;7.77;50.62;94053.72;5024285;28;20670;-79
2021/04/28 06:07:38;;;;;;;25.08;17.52;;;7.90;68.00;;;7.90;51.21;94054.75;5028594;28;20227;-79
2021/04/28 06:10:10;;;;;;;23.13;17.02;;;8.10;68.20;;;8.04;51.28;94048.56;5014327;28;20721;-78
2021/04/28 06:12:37;;;;;;;20.98;15.75;;;8.20;68.30;;;8.16;50.78;94046.97;5028086;28;20228;-79
2021/04/28 06:15:05;;;;;;;21.60;17.25;;;8.30;68.10;;;8.28;51.43;94038.59;5003810;28;20248;-79
2021/04/28 06:17:33;;;;;;;23.13;17.05;;;8.40;68.50;;;8.45;51.71;94039.00;4998458;28;20224;-80
2021/04/28 06:20:00;;;;;;;24.77;16.92;;;8.50;68.60;;;8.62;51.40;94037.63;5018998;28;20709;-79
2021/04/28 06:22:27;;;;;;;23.98;16.25;;;8.70;68.60;;;8.79;51.24;94034.63;5014966;28;20221;-79
2021/04/28 06:24:54;;;;;;;23.15;16.67;;;8.80;68.60;;;8.95;52.21;94033.38;4995761;28;20241;-79
2021/04/28 06:27:20;;;;;;;22.30;16.38;;;8.90;68.90;;;9.12;51.78;94041.63;5004367;28;20225;-78
2021/04/28 06:29:47;;;;;;;23.50;16.80;;;9.10;68.90;;;9.28;52.22;94032.53;4993149;28;20216;-79
2021/04/28 06:32:14;;;;;;;22.55;15.95;;;9.20;69.20;;;9.42;51.69;94022.81;5013759;28;20227;-78
2021/04/28 06:34:41;;;;;;;23.50;15.13;;;9.40;69.00;;;9.58;51.74;94034.63;4999738;28;20292;-79
2021/04/28 06:37:10;;;;;;;22.88;17.05;;;9.60;69.00;;;9.71;52.70;94029.34;5034566;28;20224;-80
2021/04/28 06:39:37;;;;;;;19.27;14.65;;;9.70;69.60;;;9.87;51.66;94029.88;5033846;28;20198;-79
2021/04/28 06:42:04;;;;;;;18.33;14.93;;;9.80;69.10;;;10.02;51.79;94032.22;5019361;28;20232;-80
2021/04/28 06:44:31;;;;;;;20.95;15.80;;;10.00;67.80;;;10.13;52.50;94031.56;5010343;28;20208;-80
2021/04/28 06:46:58;;;;;;;22.63;16.15;;;10.10;68.00;;;10.21;52.10;94031.31;5042441;28;20245;-80
2021/04/28 06:49:25;;;;;;;20.75;15.65;;;10.20;67.80;;;10.33;51.71;94036.69;5039780;28;20230;-79
2021/04/28 06:51:52;;;;;;;21.73;15.20;;;10.30;67.60;;;10.42;51.20;94034.63;5033341;28;20261;-80
2021/04/28 06:54:18;;;;;;;18.08;13.43;;;10.40;67.40;;;10.50;50.92;94030.97;5026072;28;20286;-80
2021/04/28 06:56:46;;;;;;;18.67;14.13;;;10.60;67.30;;;10.60;51.27;94033.09;5022723;28;20312;-80
2021/04/28 06:59:16;;;;;;;18.02;13.57;;;10.70;67.50;;;10.72;51.50;94032.19;5034535;28;20295;-80
2021/04/28 07:01:45;;;;;;;17.73;14.18;;;10.70;67.60;;;10.88;51.42;94035.28;5030856;28;20246;-80
2021/04/28 07:04:13;;;;;;;17.40;14.07;;;10.80;67.60;;;10.96;51.04;94023.72;5031713;28;20212;-81
2021/04/28 07:06:40;;;;;;;17.27;13.68;;;10.90;67.40;;;11.09;50.90;94028.84;5034503;28;20443;-81
2021/04/28 07:09:07;;;;;;;19.02;14.05;;;11.10;67.30;;;11.19;50.90;94026.53;4999332;28;20311;-81
2021/04/28 07:11:34;;;;;;;18.00;13.52;;;11.20;67.20;;;11.26;50.57;94030.91;5017509;28;20290;-81
2021/04/28 07:14:00;;;;;;;17.95;13.05;;;11.30;67.20;;;11.32;50.40;94030.81;5026896;28;20206;-80
2021/04/28 07:16:27;;;;;;;16.50;12.63;;;11.40;67.10;;;11.43;50.20;94026.69;5036841;28;20215;-81
2021/04/28 07:18:54;;;;;;;15.40;12.50;;;11.40;67.00;;;11.50;50.14;94029.25;5013562;28;20743;-79
2021/04/28 07:21:21;;;;;;;17.20;13.45;;;11.50;66.90;;;11.56;50.08;94024.91;5026478;28;20577;-80
2021/04/28 07:23:48;;;;;;;16.95;13.35;;;11.60;66.70;;;11.60;50.02;94036.63;5039370;28;20251;-81
2021/04/28 07:26:15;;;;;;;15.23;12.63;;;11.70;66.70;;;11.66;50.27;94035.72;5042455;28;20717;-81
2021/04/28 07:28:42;;;;;;;18.02;14.32;;;11.80;66.60;;;11.72;50.21;94040.09;5030270;28;20216;-80
2021/04/28 07:31:08;;;;;;;17.80;12.95;;;11.80;67.50;;;11.83;50.33;94038.56;5032055;28;20216;-80
2021/04/28 07:33:35;;;;;;;15.68;12.73;;;11.80;66.60;;;11.94;49.99;94047.53;5040358;28;20251;-81
2021/04/28 07:36:02;;;;;;;15.80;12.85;;;11.90;66.70;;;12.03;49.85;94046.22;5019239;28;20239;-80
2021/04/28 07:38:29;;;;;;;17.05;13.15;;;12.00;66.80;;;12.10;49.97;94033.78;5007096;28;20489;-80
2021/04/28 07:40:55;;;;;;;18.60;13.68;;;12.10;66.90;;;12.19;49.86;94042.16;5026778;28;20283;-80
2021/04/28 07:43:22;;;;;;;17.90;13.77;;;12.20;66.80;;;12.22;49.74;94041.72;4983417;28;20239;-80
2021/04/28 07:45:49;;;;;;;15.18;12.98;;;12.30;66.70;;;12.31;49.62;94040.38;5019948;28;20263;-80
2021/04/28 07:48:16;;;;;;;15.13;12.63;;;12.30;66.50;;;12.36;49.70;94038.91;5001916;28;20627;-81
2021/04/28 07:50:44;;;;;;;15.82;13.35;;;12.40;66.40;;;12.42;49.56;94045.91;5032694;28;20223;-81
2021/04/28 07:53:11;;;;;;;16.38;12.70;;;12.50;66.50;;;12.47;49.46;94048.66;4999911;28;20225;-80
2021/04/28 07:55:38;;;;;;;16.73;12.80;;;12.50;66.40;;;12.55;49.40;94053.59;5025591;28;20733;-80
2021/04/28 07:58:05;;;;;;;17.33;12.43;;;12.60;66.50;;;12.63;49.36;94049.84;5022486;28;20226;-80
2021/04/28 08:00:33;;;;;;;16.80;12.30;;;12.70;66.50;;;12.71;49.25;94049.50;4961910;28;20216;-80
2021/04/28 08:02:59;;;;;;;14.75;11.98;;;12.70;66.50;;;12.82;48.96;94046.09;4933800;28;20262;-80
2021/04/28 08:05:27;;;;;;;16.83;12.45;;;12.80;66.50;;;12.92;49.32;94047.38;4961287;28;20800;-80
2021/04/28 08:07:55;;;;;;;16.63;12.98;;;12.90;66.40;;;13.01;49.12;94051.28;5005838;28;20278;-79
2021/04/28 08:10:22;;;;;;;14.52;11.68;;;12.90;66.20;;;13.08;49.03;94046.69;4981353;28;20244;-80
2021/04/28 08:12:49;;;;;;;16.58;13.10;;;13.00;66.30;;;13.20;49.03;94038.00;5027897;28;20219;-80
2021/04/28 08:15:16;;;;;;;15.07;12.05;;;13.10;66.20;;;13.27;48.50;94036.84;5025802;28;20239;-80
2021/04/28 08:17:43;;;;;;;13.68;11.38;;;13.20;66.10;;;13.37;48.70;94038.91;5020857;28;20274;-80
2021/04/28 08:20:12;;;;;;;13.38;10.70;;;13.30;66.10;;;13.49;48.51;94040.72;5046198;28;20203;-81
2021/04/28 08:22:39;;;;;;;13.38;10.90;;;13.40;66.10;;;13.59;48.71;94040.97;5014526;28;20234;-79
2021/04/28 08:25:09;;;;;;;12.55;10.63;;;13.50;66.10;;;13.70;48.37;94031.44;5018262;28;20682;-80
2021/04/28 08:27:37;;;;;;;13.27;10.38;;;13.60;66.00;;;13.83;47.96;94033.00;5029532;28;20637;-79
2021/04/28 08:30:08;;;;;;;14.82;10.70;;;13.70;66.00;;;13.95;47.97;94040.88;5018325;28;20197;-80
2021/04/28 08:32:36;;;;;;;11.48;9.38;;;13.70;65.90;;;14.07;47.96;94028.44;5012136;28;20282;-80
2021/04/28 08:35:05;;;;;;;17.50;10.80;;;13.90;65.90;;;14.21;47.66;94032.41;5012737;28;20249;-80
2021/04/28 08:37:32;;;;;;;10.70;9.20;;;14.00;65.90;;;14.34;47.64;94028.69;5038707;28;20223;-81
2021/04/28 08:39:59;;;;;;;11.95;10.18;;;14.10;65.80;;;14.50;47.36;94024.47;5016949;28;20270;-81
2021/04/28 08:42:26;;;;;;;14.18;10.02;;;14.20;65.60;;;14.65;46.91;94033.69;5031124;28;20227;-81
2021/04/28 08:44:53;;;;;;;11.60;9.82;;;14.30;65.30;;;14.75;46.81;94028.59;5049031;28;20240;-80
2021/04/28 08:47:21;;;;;;;17.17;10.82;;;14.50;65.20;;;14.85;46.79;94027.97;5032380;28;20261;-81
2021/04/28 08:49:48;;;;;;;11.02;9.10;;;14.60;65.30;;;14.99;46.79;94034.53;4986247;28;20203;-80
2021/04/28 08:52:15;;;;;;;10.40;8.68;;;14.70;65.10;;;15.10;46.48;94029.38;5000511;28;20234;-81
2021/04/28 08:54:48;;;;;;;11.73;9.60;;;14.80;65.10;;;15.21;45.85;94031.16;5014295;28;20234;-81
2021/04/28 08:57:16;;;;;;;10.20;8.93;;;15.00;64.70;;;15.29;46.07;94033.34;5004183;28;20554;-81
2021/04/28 08:59:43;;;;;;;12.45;9.15;;;15.10;64.60;;;15.31;45.58;94018.06;5026268;28;20282;-81
2021/04/28 09:02:22;;;;;;;10.48;8.68;;;15.10;64.30;;;15.37;45.70;94032.16;5003247;28;20251;-80
2021/04/28 09:05:22;;;;;;;11.68;9.18;;;15.30;64.20;;;15.36;45.66;94033.19;5016677;28;20206;-81
2021/04/28 09:07:50;;;;;;;9.68;8.57;;;15.30;64.00;;;15.39;45.50;94029.28;4934425;28;20707;-81
2021/04/28 09:10:27;;;;;;;10.13;8.52;;;15.40;63.90;;;15.42;45.41;94026.16;5017645;28;20200;-80
2021/04/28 09:12:58;;;;;;;11.15;7.82;;;15.40;63.80;;;15.47;45.17;94024.34;5030745;28;20227;-81
2021/04/28 09:15:42;;;;;;;11.90;8.55;;;15.40;63.80;;;15.56;45.40;94026.59;4988700;28;20255;-80
2021/04/28 09:18:16;;;;;;;11.05;8.88;;;15.50;63.90;;;15.66;45.25;94019.59;5033854;28;20254;-80
2021/04/28 09:21:01;;;;;;;8.98;7.70;;;15.50;63.70;;;15.77;45.08;94022.34;5050246;28;20233;-80
2021/04/28 09:23:48;;;;;;;8.55;7.53;;;15.70;63.90;;;15.89;45.15;94028.34;5030994;28;20239;-81
2021/04/28 09:26:34;;;;;;;13.43;8.77;;;15.70;63.80;;;15.96;44.68;94028.94;5012472;28;20222;-81
2021/04/28 09:29:24;;;;;;;9.50;8.05;;;15.80;63.50;;;16.09;44.70;94033.06;4998811;28;20318;-81
2021/04/28 09:32:08;;;;;;;10.23;8.25;;;15.90;63.30;;;16.18;44.24;94030.78;4990715;28;20224;-81
2021/04/28 09:34:42;;;;;;;9.05;7.25;;;16.00;63.10;;;16.27;43.97;94029.31;5009814;28;20208;-81
2021/04/28 09:37:17;;;;;;;8.57;7.25;;;16.10;63.10;;;16.35;43.97;94019.31;4991108;28;20232;-81
2021/04/28 09:39:50;;;;;;;9.30;7.50;;;16.20;63.00;;;16.44;43.36;94015.97;5005654;28;20211;-81
2021/04/28 09:42:19;;;;;;;11.25;8.30;;;16.20;62.90;;;16.48;43.88;94009.13;5017492;28;20221;-81
2021/04/28 09:44:50;;;;;;;8.38;7.28;;;16.40;62.90;;;16.57;43.64;94008.66;5030501;28;20334;-82
2021/04/28 09:47:19;;;;;;;10.00;8.10;;;16.40;62.80;;;16.62;43.18;94009.53;5049212;28;20298;-81
2021/04/28 09:49:52;;;;;;;12.70;8.73;;;16.40;62.50;;;16.66;42.72;94007.13;5017542;28;20238;-81
2021/04/28 09:52:30;;;;;;;8.68;7.55;;;16.50;62.30;;;16.77;43.30;94000.06;5033949;28;20222;-81
2021/04/28 09:55:09;;;;;;;8.45;7.22;;;16.60;62.10;;;16.87;43.28;94005.47;5024695;28;20247;-80
2021/04/28 09:57:43;;;;;;;10.32;6.60;;;16.60;62.10;;;17.00;42.91;93998.16;5000947;28;20238;-80
2021/04/28 10:00:19;;;;;;;9.82;7.57;;;16.70;62.40;;;17.07;42.75;93994.25;5002483;28;20235;-80
2021/04/28 10:02:56;;;;;;;10.13;7.82;;;16.80;61.90;;;17.15;42.91;94000.94;5015002;28;20292;-80
2021/04/28 10:05:33;;;;;;;13.27;7.85;;;16.90;62.20;;;17.26;42.61;94001.78;5031428;28;20553;-80
2021/04/28 10:08:09;;;;;;;11.65;7.55;;;17.00;61.90;;;17.38;42.45;93999.75;5033966;28;20759;-80
2021/04/28 10:10:39;;;;;;;8.27;7.07;;;17.10;62.10;;;17.48;42.77;93988.41;5014628;28;20223;-80
2021/04/28 10:13:11;;;;;;;10.88;7.88;;;17.20;61.90;;;17.55;41.86;93988.97;5032161;28;20312;-81
2021/04/28 10:15:39;;;;;;;10.52;7.05;;;17.20;61.50;;;17.64;42.42;93976.00;5009121;28;20294;-81
2021/04/28 10:18:09;;;;;;;9.02;7.45;;;17.30;61.50;;;17.73;41.99;93982.38;4993774;28;20741;-80
2021/04/28 10:20:39;;;;;;;8.55;6.75;;;17.40;61.40;;;17.81;41.89;93986.41;4995077;28;20689;-80
2021/04/28 10:23:09;;;;;;;9.73;7.82;;;17.50;61.50;;;17.87;41.60;93984.56;4980332;28;20233;-80
2021/04/28 10:25:37;;;;;;;8.90;7.25;;;17.60;61.60;;;17.94;41.48;93979.81;4988362;28;20662;-79
2021/04/28 10:28:11;;;;;;;8.60;7.30;;;17.70;61.70;;;18.00;41.35;93978.00;5003117;28;20323;-80